sensor_id;sensor_type;location;lat;lon;timestamp;temperature;humidity
22544;DHT22;11438;52.044;8.716;2023-04-24T00:01:27;16.60;87.20
22544;DHT22;11438;52.044;8.716;2023-04-24T00:03:55;16.50;87.60
22544;DHT22;11438;52.044;8.716;2023-04-24T00:06:21;16.50;87.60
22544;DHT22;11438;52.044;8.716;2023-04-24T00:08:48;16.40;87.30
22544;DHT22;11438;52.044;8.716;2023-04-24T00:11:14;16.30;86.80
22544;DHT22;11438;52.044;8.716;2023-04-24T00:13:40;16.30;87.50
22544;DHT22;11438;52.044;8.716;2023-04-24T00:16:05;16.30;88.10
22544;DHT22;11438;52.044;8.716;2023-04-24T00:18:31;16.30;87.60
22544;DHT22;11438;52.044;8.716;2023-04-24T00:20:56;16.20;87.70
22544;DHT22;11438;52.044;8.716;2023-04-24T00:23:22;16.20;87.60
22544;DHT22;11438;52.044;8.716;2023-04-24T00:25:47;16.20;88.30
22544;DHT22;11438;52.044;8.716;2023-04-24T00:28:13;16.10;87.90
22544;DHT22;11438;52.044;8.716;2023-04-24T00:30:39;16.10;88.20
22544;DHT22;11438;52.044;8.716;2023-04-24T00:33:05;16.10;88.40
22544;DHT22;11438;52.044;8.716;2023-04-24T00:35:30;16.10;88.50
22544;DHT22;11438;52.044;8.716;2023-04-24T00:37:56;16.10;88.70
22544;DHT22;11438;52.044;8.716;2023-04-24T00:40:22;16.00;88.60
22544;DHT22;11438;52.044;8.716;2023-04-24T00:42:47;16.10;88.50
22544;DHT22;11438;52.044;8.716;2023-04-24T00:45:13;16.00;89.20
22544;DHT22;11438;52.044;8.716;2023-04-24T00:47:39;16.00;89.70
22544;DHT22;11438;52.044;8.716;2023-04-24T00:50:07;15.90;90.00
22544;DHT22;11438;52.044;8.716;2023-04-24T00:52:32;16.00;90.10
22544;DHT22;11438;52.044;8.716;2023-04-24T00:54:58;15.90;90.00
22544;DHT22;11438;52.044;8.716;2023-04-24T00:57:24;15.90;89.70
22544;DHT22;11438;52.044;8.716;2023-04-24T00:59:51;16.00;89.50
22544;DHT22;11438;52.044;8.716;2023-04-24T01:02:17;16.00;89.40
22544;DHT22;11438;52.044;8.716;2023-04-24T01:04:44;16.00;89.70
22544;DHT22;11438;52.044;8.716;2023-04-24T01:07:09;16.00;90.00
22544;DHT22;11438;52.044;8.716;2023-04-24T01:09:43;15.90;90.20
22544;DHT22;11438;52.044;8.716;2023-04-24T01:12:12;15.90;90.20
22544;DHT22;11438;52.044;8.716;2023-04-24T01:14:38;15.90;90.30
22544;DHT22;11438;52.044;8.716;2023-04-24T01:17:03;15.90;90.50
22544;DHT22;11438;52.044;8.716;2023-04-24T01:19:29;15.90;90.40
22544;DHT22;11438;52.044;8.716;2023-04-24T01:21:58;16.00;90.50
22544;DHT22;11438;52.044;8.716;2023-04-24T01:24:27;15.90;90.40
22544;DHT22;11438;52.044;8.716;2023-04-24T01:26:53;15.90;90.50
22544;DHT22;11438;52.044;8.716;2023-04-24T01:29:19;15.90;90.50
22544;DHT22;11438;52.044;8.716;2023-04-24T01:31:45;15.90;90.60
22544;DHT22;11438;52.044;8.716;2023-04-24T01:34:10;15.90;91.00
22544;DHT22;11438;52.044;8.716;2023-04-24T01:36:36;15.90;90.70
22544;DHT22;11438;52.044;8.716;2023-04-24T01:39:02;15.90;90.70
22544;DHT22;11438;52.044;8.716;2023-04-24T01:41:29;15.90;90.60
22544;DHT22;11438;52.044;8.716;2023-04-24T01:43:57;15.80;90.60
22544;DHT22;11438;52.044;8.716;2023-04-24T01:46:23;15.90;90.60
22544;DHT22;11438;52.044;8.716;2023-04-24T01:48:49;15.80;90.40
22544;DHT22;11438;52.044;8.716;2023-04-24T01:51:15;15.80;90.30
22544;DHT22;11438;52.044;8.716;2023-04-24T01:53:40;15.80;90.30
22544;DHT22;11438;52.044;8.716;2023-04-24T01:56:06;15.70;90.20
22544;DHT22;11438;52.044;8.716;2023-04-24T01:58:32;15.80;90.20
22544;DHT22;11438;52.044;8.716;2023-04-24T02:00:57;15.70;90.30
22544;DHT22;11438;52.044;8.716;2023-04-24T02:03:25;15.70;90.20
22544;DHT22;11438;52.044;8.716;2023-04-24T02:05:51;15.60;90.20
22544;DHT22;11438;52.044;8.716;2023-04-24T02:08:16;15.60;90.10
22544;DHT22;11438;52.044;8.716;2023-04-24T02:10:42;15.50;90.20
22544;DHT22;11438;52.044;8.716;2023-04-24T02:13:07;15.40;90.00
22544;DHT22;11438;52.044;8.716;2023-04-24T02:15:33;15.40;90.00
22544;DHT22;11438;52.044;8.716;2023-04-24T02:17:58;15.40;90.00
22544;DHT22;11438;52.044;8.716;2023-04-24T02:20:24;15.30;90.10
22544;DHT22;11438;52.044;8.716;2023-04-24T02:22:50;15.30;90.20
22544;DHT22;11438;52.044;8.716;2023-04-24T02:25:15;15.20;90.30
22544;DHT22;11438;52.044;8.716;2023-04-24T02:27:41;15.20;90.20
22544;DHT22;11438;52.044;8.716;2023-04-24T02:30:06;15.20;90.30
22544;DHT22;11438;52.044;8.716;2023-04-24T02:32:32;15.10;90.20
22544;DHT22;11438;52.044;8.716;2023-04-24T02:34:59;15.10;90.30
22544;DHT22;11438;52.044;8.716;2023-04-24T02:37:24;15.10;90.40
22544;DHT22;11438;52.044;8.716;2023-04-24T02:39:50;15.10;90.40
22544;DHT22;11438;52.044;8.716;2023-04-24T02:42:15;15.00;90.50
22544;DHT22;11438;52.044;8.716;2023-04-24T02:44:41;15.00;90.60
22544;DHT22;11438;52.044;8.716;2023-04-24T02:47:06;15.00;90.70
22544;DHT22;11438;52.044;8.716;2023-04-24T02:49:32;15.00;90.80
22544;DHT22;11438;52.044;8.716;2023-04-24T02:51:58;15.00;90.80
22544;DHT22;11438;52.044;8.716;2023-04-24T02:54:24;14.90;90.70
22544;DHT22;11438;52.044;8.716;2023-04-24T02:56:49;14.90;90.80
22544;DHT22;11438;52.044;8.716;2023-04-24T02:59:15;14.90;90.80
22544;DHT22;11438;52.044;8.716;2023-04-24T03:01:40;14.90;90.90
22544;DHT22;11438;52.044;8.716;2023-04-24T03:04:06;14.90;90.90
22544;DHT22;11438;52.044;8.716;2023-04-24T03:06:31;14.90;90.90
22544;DHT22;11438;52.044;8.716;2023-04-24T03:08:58;14.90;90.90
22544;DHT22;11438;52.044;8.716;2023-04-24T03:11:23;14.80;90.90
22544;DHT22;11438;52.044;8.716;2023-04-24T03:13:49;14.80;90.90
22544;DHT22;11438;52.044;8.716;2023-04-24T03:16:14;14.80;91.00
22544;DHT22;11438;52.044;8.716;2023-04-24T03:18:40;14.80;91.00
22544;DHT22;11438;52.044;8.716;2023-04-24T03:21:05;14.80;91.10
22544;DHT22;11438;52.044;8.716;2023-04-24T03:23:31;14.80;91.20
22544;DHT22;11438;52.044;8.716;2023-04-24T03:25:56;14.80;91.30
22544;DHT22;11438;52.044;8.716;2023-04-24T03:28:22;14.80;91.30
22544;DHT22;11438;52.044;8.716;2023-04-24T03:30:47;14.80;91.50
22544;DHT22;11438;52.044;8.716;2023-04-24T03:33:13;14.80;91.50
22544;DHT22;11438;52.044;8.716;2023-04-24T03:35:38;14.80;91.50
22544;DHT22;11438;52.044;8.716;2023-04-24T03:38:04;14.80;91.60
22544;DHT22;11438;52.044;8.716;2023-04-24T03:40:30;14.90;91.60
22544;DHT22;11438;52.044;8.716;2023-04-24T03:42:55;14.90;91.60
22544;DHT22;11438;52.044;8.716;2023-04-24T03:45:21;14.90;91.60
22544;DHT22;11438;52.044;8.716;2023-04-24T03:47:46;14.90;91.60
22544;DHT22;11438;52.044;8.716;2023-04-24T03:50:12;15.00;91.70
22544;DHT22;11438;52.044;8.716;2023-04-24T03:52:37;15.00;91.60
22544;DHT22;11438;52.044;8.716;2023-04-24T03:55:03;15.00;91.70
22544;DHT22;11438;52.044;8.716;2023-04-24T03:57:29;15.10;91.70
22544;DHT22;11438;52.044;8.716;2023-04-24T03:59:54;15.10;91.70
22544;DHT22;11438;52.044;8.716;2023-04-24T04:02:20;15.10;91.70
22544;DHT22;11438;52.044;8.716;2023-04-24T04:04:46;15.10;91.70
22544;DHT22;11438;52.044;8.716;2023-04-24T04:07:11;15.10;91.60
22544;DHT22;11438;52.044;8.716;2023-04-24T04:09:38;15.10;91.60
22544;DHT22;11438;52.044;8.716;2023-04-24T04:12:03;15.10;91.60
22544;DHT22;11438;52.044;8.716;2023-04-24T04:14:29;15.10;91.60
22544;DHT22;11438;52.044;8.716;2023-04-24T04:16:55;15.10;91.60
22544;DHT22;11438;52.044;8.716;2023-04-24T04:19:20;15.10;91.50
22544;DHT22;11438;52.044;8.716;2023-04-24T04:21:46;15.10;91.50
22544;DHT22;11438;52.044;8.716;2023-04-24T04:24:15;15.10;91.50
22544;DHT22;11438;52.044;8.716;2023-04-24T04:26:41;15.10;91.50
22544;DHT22;11438;52.044;8.716;2023-04-24T04:29:11;15.10;91.50
22544;DHT22;11438;52.044;8.716;2023-04-24T04:31:37;15.10;91.50
22544;DHT22;11438;52.044;8.716;2023-04-24T04:34:02;15.10;91.30
22544;DHT22;11438;52.044;8.716;2023-04-24T04:36:29;15.10;91.40
22544;DHT22;11438;52.044;8.716;2023-04-24T04:38:54;15.10;91.40
22544;DHT22;11438;52.044;8.716;2023-04-24T04:41:20;15.10;91.50
22544;DHT22;11438;52.044;8.716;2023-04-24T04:43:45;15.10;91.50
22544;DHT22;11438;52.044;8.716;2023-04-24T04:46:11;15.10;91.50
22544;DHT22;11438;52.044;8.716;2023-04-24T04:48:37;15.10;91.50
22544;DHT22;11438;52.044;8.716;2023-04-24T04:51:03;15.10;91.60
22544;DHT22;11438;52.044;8.716;2023-04-24T04:53:29;15.10;91.50
22544;DHT22;11438;52.044;8.716;2023-04-24T04:55:54;15.10;91.50
22544;DHT22;11438;52.044;8.716;2023-04-24T04:58:20;15.00;91.30
22544;DHT22;11438;52.044;8.716;2023-04-24T05:00:45;15.00;91.30
22544;DHT22;11438;52.044;8.716;2023-04-24T05:03:11;15.00;91.20
22544;DHT22;11438;52.044;8.716;2023-04-24T05:05:37;15.00;91.20
22544;DHT22;11438;52.044;8.716;2023-04-24T05:08:08;15.00;91.20
22544;DHT22;11438;52.044;8.716;2023-04-24T05:10:34;15.00;91.10
22544;DHT22;11438;52.044;8.716;2023-04-24T05:13:02;14.90;91.20
22544;DHT22;11438;52.044;8.716;2023-04-24T05:15:28;14.90;91.20
22544;DHT22;11438;52.044;8.716;2023-04-24T05:17:53;14.90;91.00
22544;DHT22;11438;52.044;8.716;2023-04-24T05:20:19;14.90;90.70
22544;DHT22;11438;52.044;8.716;2023-04-24T05:22:44;14.90;90.60
22544;DHT22;11438;52.044;8.716;2023-04-24T05:25:10;14.80;90.40
22544;DHT22;11438;52.044;8.716;2023-04-24T05:27:35;14.90;90.40
22544;DHT22;11438;52.044;8.716;2023-04-24T05:30:01;14.80;90.70
22544;DHT22;11438;52.044;8.716;2023-04-24T05:32:26;14.80;90.30
22544;DHT22;11438;52.044;8.716;2023-04-24T05:34:52;14.70;90.20
22544;DHT22;11438;52.044;8.716;2023-04-24T05:37:17;14.70;90.20
22544;DHT22;11438;52.044;8.716;2023-04-24T05:39:43;14.70;90.20
22544;DHT22;11438;52.044;8.716;2023-04-24T05:42:09;14.70;90.30
22544;DHT22;11438;52.044;8.716;2023-04-24T05:44:34;14.70;90.40
22544;DHT22;11438;52.044;8.716;2023-04-24T05:47:00;14.60;90.40
22544;DHT22;11438;52.044;8.716;2023-04-24T05:49:26;14.60;90.40
22544;DHT22;11438;52.044;8.716;2023-04-24T05:51:51;14.60;90.60
22544;DHT22;11438;52.044;8.716;2023-04-24T05:54:17;14.70;90.60
22544;DHT22;11438;52.044;8.716;2023-04-24T05:56:42;14.70;90.60
22544;DHT22;11438;52.044;8.716;2023-04-24T05:59:08;14.70;90.60
22544;DHT22;11438;52.044;8.716;2023-04-24T06:01:34;14.70;90.60
22544;DHT22;11438;52.044;8.716;2023-04-24T06:03:59;14.70;90.60
22544;DHT22;11438;52.044;8.716;2023-04-24T06:06:25;14.70;90.50
22544;DHT22;11438;52.044;8.716;2023-04-24T06:08:52;14.70;90.60
22544;DHT22;11438;52.044;8.716;2023-04-24T06:11:17;14.70;90.60
22544;DHT22;11438;52.044;8.716;2023-04-24T06:13:43;14.70;90.70
22544;DHT22;11438;52.044;8.716;2023-04-24T06:16:09;14.70;90.70
22544;DHT22;11438;52.044;8.716;2023-04-24T06:18:34;14.70;90.70
22544;DHT22;11438;52.044;8.716;2023-04-24T06:21:00;14.70;90.70
22544;DHT22;11438;52.044;8.716;2023-04-24T06:23:26;14.70;90.60
22544;DHT22;11438;52.044;8.716;2023-04-24T06:25:51;14.70;90.50
22544;DHT22;11438;52.044;8.716;2023-04-24T06:28:17;14.80;90.60
22544;DHT22;11438;52.044;8.716;2023-04-24T06:30:42;14.80;90.70
22544;DHT22;11438;52.044;8.716;2023-04-24T06:33:08;14.80;90.60
22544;DHT22;11438;52.044;8.716;2023-04-24T06:35:34;14.80;90.60
22544;DHT22;11438;52.044;8.716;2023-04-24T06:38:00;14.80;90.60
22544;DHT22;11438;52.044;8.716;2023-04-24T06:40:25;14.80;90.50
22544;DHT22;11438;52.044;8.716;2023-04-24T06:42:51;14.80;90.40
22544;DHT22;11438;52.044;8.716;2023-04-24T06:45:16;14.90;90.50
22544;DHT22;11438;52.044;8.716;2023-04-24T06:47:42;14.80;90.50
22544;DHT22;11438;52.044;8.716;2023-04-24T06:50:08;14.80;90.30
22544;DHT22;11438;52.044;8.716;2023-04-24T06:52:33;14.90;90.50
22544;DHT22;11438;52.044;8.716;2023-04-24T06:55:03;14.90;90.40
22544;DHT22;11438;52.044;8.716;2023-04-24T06:57:29;14.90;90.40
22544;DHT22;11438;52.044;8.716;2023-04-24T06:59:55;14.90;90.40
22544;DHT22;11438;52.044;8.716;2023-04-24T07:02:20;14.90;90.30
22544;DHT22;11438;52.044;8.716;2023-04-24T07:04:46;14.90;90.10
22544;DHT22;11438;52.044;8.716;2023-04-24T07:07:13;14.90;90.30
22544;DHT22;11438;52.044;8.716;2023-04-24T07:09:39;14.90;90.40
22544;DHT22;11438;52.044;8.716;2023-04-24T07:12:08;14.90;90.40
22544;DHT22;11438;52.044;8.716;2023-04-24T07:14:33;14.90;90.30
22544;DHT22;11438;52.044;8.716;2023-04-24T07:17:00;14.90;90.30
22544;DHT22;11438;52.044;8.716;2023-04-24T07:19:25;14.90;90.30
22544;DHT22;11438;52.044;8.716;2023-04-24T07:21:50;14.90;90.10
22544;DHT22;11438;52.044;8.716;2023-04-24T07:24:16;14.90;90.10
22544;DHT22;11438;52.044;8.716;2023-04-24T07:26:41;14.90;90.10
22544;DHT22;11438;52.044;8.716;2023-04-24T07:29:07;14.90;90.00
22544;DHT22;11438;52.044;8.716;2023-04-24T07:31:33;14.90;90.00
22544;DHT22;11438;52.044;8.716;2023-04-24T07:33:59;14.90;89.90
22544;DHT22;11438;52.044;8.716;2023-04-24T07:36:24;14.90;90.00
22544;DHT22;11438;52.044;8.716;2023-04-24T07:38:51;14.90;90.00
22544;DHT22;11438;52.044;8.716;2023-04-24T07:41:17;14.90;90.20
22544;DHT22;11438;52.044;8.716;2023-04-24T07:43:44;15.00;90.10
22544;DHT22;11438;52.044;8.716;2023-04-24T07:46:09;15.00;90.10
22544;DHT22;11438;52.044;8.716;2023-04-24T07:48:35;15.00;90.00
22544;DHT22;11438;52.044;8.716;2023-04-24T07:51:01;15.00;90.10
22544;DHT22;11438;52.044;8.716;2023-04-24T07:53:27;15.10;89.20
22544;DHT22;11438;52.044;8.716;2023-04-24T07:55:54;15.10;89.20
22544;DHT22;11438;52.044;8.716;2023-04-24T07:58:20;15.10;89.30
22544;DHT22;11438;52.044;8.716;2023-04-24T08:00:47;15.10;89.10
22544;DHT22;11438;52.044;8.716;2023-04-24T08:03:12;15.10;89.10
22544;DHT22;11438;52.044;8.716;2023-04-24T08:05:38;15.10;88.70
22544;DHT22;11438;52.044;8.716;2023-04-24T08:08:04;15.10;89.00
22544;DHT22;11438;52.044;8.716;2023-04-24T08:10:30;15.10;89.10
22544;DHT22;11438;52.044;8.716;2023-04-24T08:12:55;15.10;89.20
22544;DHT22;11438;52.044;8.716;2023-04-24T08:15:21;15.10;88.90
22544;DHT22;11438;52.044;8.716;2023-04-24T08:17:47;15.20;89.30
22544;DHT22;11438;52.044;8.716;2023-04-24T08:20:12;15.20;89.40
22544;DHT22;11438;52.044;8.716;2023-04-24T08:22:41;15.30;89.60
22544;DHT22;11438;52.044;8.716;2023-04-24T08:25:08;15.30;89.30
22544;DHT22;11438;52.044;8.716;2023-04-24T08:27:34;15.30;89.30
22544;DHT22;11438;52.044;8.716;2023-04-24T08:29:59;15.40;88.50
22544;DHT22;11438;52.044;8.716;2023-04-24T08:32:25;15.50;88.70
22544;DHT22;11438;52.044;8.716;2023-04-24T08:34:54;15.50;88.40
22544;DHT22;11438;52.044;8.716;2023-04-24T08:37:21;15.60;88.10
22544;DHT22;11438;52.044;8.716;2023-04-24T08:39:47;15.60;88.00
22544;DHT22;11438;52.044;8.716;2023-04-24T08:42:13;15.60;87.70
22544;DHT22;11438;52.044;8.716;2023-04-24T08:44:40;15.60;87.80
22544;DHT22;11438;52.044;8.716;2023-04-24T08:47:07;15.60;88.40
22544;DHT22;11438;52.044;8.716;2023-04-24T08:49:33;15.60;88.00
22544;DHT22;11438;52.044;8.716;2023-04-24T08:51:58;15.60;87.50
22544;DHT22;11438;52.044;8.716;2023-04-24T08:54:25;15.60;87.50
22544;DHT22;11438;52.044;8.716;2023-04-24T08:56:53;15.70;87.70
22544;DHT22;11438;52.044;8.716;2023-04-24T08:59:23;15.70;87.80
22544;DHT22;11438;52.044;8.716;2023-04-24T09:01:49;15.80;87.10
22544;DHT22;11438;52.044;8.716;2023-04-24T09:04:17;15.80;87.20
22544;DHT22;11438;52.044;8.716;2023-04-24T09:06:45;15.80;87.40
22544;DHT22;11438;52.044;8.716;2023-04-24T09:09:11;15.80;87.30
22544;DHT22;11438;52.044;8.716;2023-04-24T09:11:37;15.90;87.00
22544;DHT22;11438;52.044;8.716;2023-04-24T09:14:03;15.90;86.60
22544;DHT22;11438;52.044;8.716;2023-04-24T09:16:29;15.90;86.60
22544;DHT22;11438;52.044;8.716;2023-04-24T09:18:55;16.00;86.90
22544;DHT22;11438;52.044;8.716;2023-04-24T09:21:22;15.90;85.80
22544;DHT22;11438;52.044;8.716;2023-04-24T09:23:58;16.00;86.20
22544;DHT22;11438;52.044;8.716;2023-04-24T09:26:24;16.00;86.20
22544;DHT22;11438;52.044;8.716;2023-04-24T09:28:50;16.00;86.30
22544;DHT22;11438;52.044;8.716;2023-04-24T09:31:19;16.00;86.00
22544;DHT22;11438;52.044;8.716;2023-04-24T09:34:03;16.00;85.60
22544;DHT22;11438;52.044;8.716;2023-04-24T09:36:36;16.00;85.80
22544;DHT22;11438;52.044;8.716;2023-04-24T09:39:05;16.00;85.50
22544;DHT22;11438;52.044;8.716;2023-04-24T09:41:33;16.00;85.20
22544;DHT22;11438;52.044;8.716;2023-04-24T09:44:15;15.90;84.10
22544;DHT22;11438;52.044;8.716;2023-04-24T09:46:49;15.90;84.70
22544;DHT22;11438;52.044;8.716;2023-04-24T09:49:16;15.80;85.10
22544;DHT22;11438;52.044;8.716;2023-04-24T09:51:45;15.90;85.30
22544;DHT22;11438;52.044;8.716;2023-04-24T09:54:20;15.80;85.20
22544;DHT22;11438;52.044;8.716;2023-04-24T09:56:51;15.80;84.40
22544;DHT22;11438;52.044;8.716;2023-04-24T09:59:18;15.80;85.00
22544;DHT22;11438;52.044;8.716;2023-04-24T10:01:44;15.80;85.30
22544;DHT22;11438;52.044;8.716;2023-04-24T10:04:19;15.80;85.40
22544;DHT22;11438;52.044;8.716;2023-04-24T10:06:46;15.90;85.30
22544;DHT22;11438;52.044;8.716;2023-04-24T10:09:12;15.90;85.10
22544;DHT22;11438;52.044;8.716;2023-04-24T10:11:42;15.80;84.80
22544;DHT22;11438;52.044;8.716;2023-04-24T10:14:12;15.80;84.60
22544;DHT22;11438;52.044;8.716;2023-04-24T10:16:39;15.80;85.10
22544;DHT22;11438;52.044;8.716;2023-04-24T10:19:06;15.80;84.50
22544;DHT22;11438;52.044;8.716;2023-04-24T10:21:32;15.70;84.30
22544;DHT22;11438;52.044;8.716;2023-04-24T10:23:59;15.70;84.50
22544;DHT22;11438;52.044;8.716;2023-04-24T10:26:26;15.70;84.50
22544;DHT22;11438;52.044;8.716;2023-04-24T10:28:54;15.70;84.90
22544;DHT22;11438;52.044;8.716;2023-04-24T10:31:22;15.60;85.10
22544;DHT22;11438;52.044;8.716;2023-04-24T10:33:48;15.60;85.50
22544;DHT22;11438;52.044;8.716;2023-04-24T10:36:15;15.70;85.60
22544;DHT22;11438;52.044;8.716;2023-04-24T10:38:43;15.70;84.70
22544;DHT22;11438;52.044;8.716;2023-04-24T10:41:12;15.70;84.70
22544;DHT22;11438;52.044;8.716;2023-04-24T10:43:42;15.70;84.80
22544;DHT22;11438;52.044;8.716;2023-04-24T10:46:08;15.60;85.40
22544;DHT22;11438;52.044;8.716;2023-04-24T10:48:35;15.70;85.70
22544;DHT22;11438;52.044;8.716;2023-04-24T10:51:02;15.60;85.70
22544;DHT22;11438;52.044;8.716;2023-04-24T10:53:29;15.60;85.90
22544;DHT22;11438;52.044;8.716;2023-04-24T10:56:06;15.60;86.40
22544;DHT22;11438;52.044;8.716;2023-04-24T10:58:37;15.60;86.90
22544;DHT22;11438;52.044;8.716;2023-04-24T11:01:04;15.60;86.90
22544;DHT22;11438;52.044;8.716;2023-04-24T11:03:31;15.60;87.10
22544;DHT22;11438;52.044;8.716;2023-04-24T11:06:08;15.60;87.10
22544;DHT22;11438;52.044;8.716;2023-04-24T11:08:44;15.60;86.80
22544;DHT22;11438;52.044;8.716;2023-04-24T11:11:15;15.60;86.80
22544;DHT22;11438;52.044;8.716;2023-04-24T11:16:39;15.60;88.30
22544;DHT22;11438;52.044;8.716;2023-04-24T11:19:17;15.50;89.10
22544;DHT22;11438;52.044;8.716;2023-04-24T11:21:45;15.50;90.00
22544;DHT22;11438;52.044;8.716;2023-04-24T11:27:05;15.60;90.40
22544;DHT22;11438;52.044;8.716;2023-04-24T11:32:24;15.60;90.30
22544;DHT22;11438;52.044;8.716;2023-04-24T11:34:52;15.60;90.20
22544;DHT22;11438;52.044;8.716;2023-04-24T11:37:18;15.60;90.10
22544;DHT22;11438;52.044;8.716;2023-04-24T11:39:44;15.60;90.20
22544;DHT22;11438;52.044;8.716;2023-04-24T11:42:09;15.60;90.30
22544;DHT22;11438;52.044;8.716;2023-04-24T11:44:35;15.60;90.30
22544;DHT22;11438;52.044;8.716;2023-04-24T11:47:08;15.50;90.40
22544;DHT22;11438;52.044;8.716;2023-04-24T11:49:36;15.50;90.20
22544;DHT22;11438;52.044;8.716;2023-04-24T11:52:01;15.40;90.20
22544;DHT22;11438;52.044;8.716;2023-04-24T11:54:27;15.40;90.20
22544;DHT22;11438;52.044;8.716;2023-04-24T11:56:53;15.40;90.30
22544;DHT22;11438;52.044;8.716;2023-04-24T11:59:18;15.30;90.40
22544;DHT22;11438;52.044;8.716;2023-04-24T12:01:48;15.30;90.30
22544;DHT22;11438;52.044;8.716;2023-04-24T12:04:14;15.30;90.40
22544;DHT22;11438;52.044;8.716;2023-04-24T12:06:59;15.20;90.10
22544;DHT22;11438;52.044;8.716;2023-04-24T12:09:25;15.10;90.00
22544;DHT22;11438;52.044;8.716;2023-04-24T12:11:57;15.10;90.10
22544;DHT22;11438;52.044;8.716;2023-04-24T12:14:23;15.00;90.20
22544;DHT22;11438;52.044;8.716;2023-04-24T12:16:50;15.00;90.40
22544;DHT22;11438;52.044;8.716;2023-04-24T12:19:21;14.90;90.80
22544;DHT22;11438;52.044;8.716;2023-04-24T12:21:59;14.80;90.90
22544;DHT22;11438;52.044;8.716;2023-04-24T12:24:25;14.80;91.30
22544;DHT22;11438;52.044;8.716;2023-04-24T12:26:50;14.80;91.20
22544;DHT22;11438;52.044;8.716;2023-04-24T12:29:22;14.80;91.50
22544;DHT22;11438;52.044;8.716;2023-04-24T12:31:48;14.70;91.70
22544;DHT22;11438;52.044;8.716;2023-04-24T12:34:25;14.80;91.80
22544;DHT22;11438;52.044;8.716;2023-04-24T12:36:51;14.70;91.90
22544;DHT22;11438;52.044;8.716;2023-04-24T12:39:18;14.70;91.90
22544;DHT22;11438;52.044;8.716;2023-04-24T12:41:57;14.70;92.10
22544;DHT22;11438;52.044;8.716;2023-04-24T12:44:32;14.60;92.30
22544;DHT22;11438;52.044;8.716;2023-04-24T12:47:00;14.60;92.30
22544;DHT22;11438;52.044;8.716;2023-04-24T12:49:25;14.50;92.10
22544;DHT22;11438;52.044;8.716;2023-04-24T12:51:51;14.40;92.00
22544;DHT22;11438;52.044;8.716;2023-04-24T12:54:16;14.40;92.30
22544;DHT22;11438;52.044;8.716;2023-04-24T12:56:42;14.30;92.40
22544;DHT22;11438;52.044;8.716;2023-04-24T12:59:07;14.20;92.40
22544;DHT22;11438;52.044;8.716;2023-04-24T13:01:33;14.20;92.60
22544;DHT22;11438;52.044;8.716;2023-04-24T13:03:58;14.10;92.70
22544;DHT22;11438;52.044;8.716;2023-04-24T13:06:24;14.10;92.90
22544;DHT22;11438;52.044;8.716;2023-04-24T13:08:49;14.10;93.40
22544;DHT22;11438;52.044;8.716;2023-04-24T13:11:16;14.10;93.20
22544;DHT22;11438;52.044;8.716;2023-04-24T13:13:43;14.10;93.40
22544;DHT22;11438;52.044;8.716;2023-04-24T13:16:08;14.10;93.60
22544;DHT22;11438;52.044;8.716;2023-04-24T13:18:34;14.10;93.70
22544;DHT22;11438;52.044;8.716;2023-04-24T13:20:59;14.10;93.80
22544;DHT22;11438;52.044;8.716;2023-04-24T13:23:25;14.10;93.80
22544;DHT22;11438;52.044;8.716;2023-04-24T13:25:51;14.20;94.20
22544;DHT22;11438;52.044;8.716;2023-04-24T13:28:17;14.20;94.10
22544;DHT22;11438;52.044;8.716;2023-04-24T13:30:43;14.20;94.20
22544;DHT22;11438;52.044;8.716;2023-04-24T13:33:08;14.20;94.20
22544;DHT22;11438;52.044;8.716;2023-04-24T13:35:34;14.20;94.10
22544;DHT22;11438;52.044;8.716;2023-04-24T13:38:00;14.20;94.10
22544;DHT22;11438;52.044;8.716;2023-04-24T13:40:27;14.20;94.10
22544;DHT22;11438;52.044;8.716;2023-04-24T13:42:52;14.10;93.90
22544;DHT22;11438;52.044;8.716;2023-04-24T13:45:18;14.10;94.00
22544;DHT22;11438;52.044;8.716;2023-04-24T13:47:43;14.10;93.90
22544;DHT22;11438;52.044;8.716;2023-04-24T13:50:09;14.10;93.90
22544;DHT22;11438;52.044;8.716;2023-04-24T13:52:35;14.00;93.80
22544;DHT22;11438;52.044;8.716;2023-04-24T13:55:00;14.00;93.80
22544;DHT22;11438;52.044;8.716;2023-04-24T13:57:26;14.00;93.90
22544;DHT22;11438;52.044;8.716;2023-04-24T13:59:53;14.00;94.10
22544;DHT22;11438;52.044;8.716;2023-04-24T14:02:20;14.00;94.00
22544;DHT22;11438;52.044;8.716;2023-04-24T14:04:46;13.90;94.20
22544;DHT22;11438;52.044;8.716;2023-04-24T14:07:13;13.90;94.10
22544;DHT22;11438;52.044;8.716;2023-04-24T14:09:38;13.90;94.40
22544;DHT22;11438;52.044;8.716;2023-04-24T14:12:04;13.90;94.40
22544;DHT22;11438;52.044;8.716;2023-04-24T14:14:30;13.90;94.40
22544;DHT22;11438;52.044;8.716;2023-04-24T14:16:56;13.90;94.20
22544;DHT22;11438;52.044;8.716;2023-04-24T14:19:22;13.90;94.30
22544;DHT22;11438;52.044;8.716;2023-04-24T14:21:47;13.90;94.40
22544;DHT22;11438;52.044;8.716;2023-04-24T14:24:13;13.90;94.30
22544;DHT22;11438;52.044;8.716;2023-04-24T14:26:38;13.90;94.50
22544;DHT22;11438;52.044;8.716;2023-04-24T14:29:04;13.80;94.50
22544;DHT22;11438;52.044;8.716;2023-04-24T14:31:30;13.90;94.80
22544;DHT22;11438;52.044;8.716;2023-04-24T14:33:55;13.90;94.60
22544;DHT22;11438;52.044;8.716;2023-04-24T14:36:21;14.00;94.60
22544;DHT22;11438;52.044;8.716;2023-04-24T14:38:46;14.00;94.60
22544;DHT22;11438;52.044;8.716;2023-04-24T14:41:12;14.10;94.80
22544;DHT22;11438;52.044;8.716;2023-04-24T14:43:37;14.10;94.80
22544;DHT22;11438;52.044;8.716;2023-04-24T14:46:03;14.20;94.50
22544;DHT22;11438;52.044;8.716;2023-04-24T14:48:29;14.20;94.30
22544;DHT22;11438;52.044;8.716;2023-04-24T14:50:54;14.30;94.30
22544;DHT22;11438;52.044;8.716;2023-04-24T14:53:20;14.30;94.00
22544;DHT22;11438;52.044;8.716;2023-04-24T14:55:46;14.30;94.00
22544;DHT22;11438;52.044;8.716;2023-04-24T14:58:11;14.30;93.90
22544;DHT22;11438;52.044;8.716;2023-04-24T15:00:37;14.30;93.80
22544;DHT22;11438;52.044;8.716;2023-04-24T15:03:02;14.20;93.80
22544;DHT22;11438;52.044;8.716;2023-04-24T15:05:28;14.20;93.70
22544;DHT22;11438;52.044;8.716;2023-04-24T15:07:54;14.20;93.70
22544;DHT22;11438;52.044;8.716;2023-04-24T15:10:19;14.20;93.50
22544;DHT22;11438;52.044;8.716;2023-04-24T15:12:48;14.20;93.60
22544;DHT22;11438;52.044;8.716;2023-04-24T15:15:13;14.10;93.50
22544;DHT22;11438;52.044;8.716;2023-04-24T15:17:39;14.00;93.20
22544;DHT22;11438;52.044;8.716;2023-04-24T15:20:05;14.00;93.40
22544;DHT22;11438;52.044;8.716;2023-04-24T15:22:32;13.90;93.50
22544;DHT22;11438;52.044;8.716;2023-04-24T15:24:57;13.90;93.60
22544;DHT22;11438;52.044;8.716;2023-04-24T15:27:23;13.80;93.60
22544;DHT22;11438;52.044;8.716;2023-04-24T15:29:48;13.80;93.70
22544;DHT22;11438;52.044;8.716;2023-04-24T15:32:14;13.80;93.70
22544;DHT22;11438;52.044;8.716;2023-04-24T15:34:39;13.80;93.80